首页
METAR-TAF:

METAR-TAF

机场 :

Wattisham, 英格兰

纬度: 52-07N, 经度: 000-58E, 海拔: 87米

当前天气观测

该预报发布于43分钟前的14:50 UTC
风速11节,风向西北
温度 11°C
湿度 82%
气压 995 hPa
能见度10公里或以上
少量云层高于1800英尺, 积雨云.

METAR: EGUW 051450Z 31011KT 9999 FEW018CB 11/08 Q0995 TEMPO 5000 -TSRA SCT022CB RMK BLU TEMPO WHT

时间: 16:33 (15:33 UTC)

预报

该预报发布于2小时和13分钟前的13:20 UTC
预报有效从05日的 15点(UTC)到 05日的 19点(UTC)
风速14节,风向西转西北
能见度10公里或以上
散云层高于2500英尺
短暂存在
从 05日的 15点(UTC)到 05日的 19点(UTC)
能見度: 7000
散云层高于2200英尺
阵雨
几率 30% :
短暂存在
从 05日的 15点(UTC)到 05日的 19点(UTC)
风速20节,风向西北,有时为32节阵风
能見度: 3000
多云层高于2000英尺, 积雨云.
雷暴, 小冰雹或雪球

TAF: EGUW 051320Z 0515/0519 30014KT 9999 SCT025 TEMPO 0515/0519 7000 SHRA SCT022 PROB30 TEMPO 0515/0519 32020G32KT 3000 TSGS BKN020CB

超过4000个机场的气象观测和天气预报(METAR&TAF报告)。

可查询的气象台以黄色和红色小点在地图上表示。

将鼠标移到小点上方,可查看气象台名称。

然后点击查看天气观测和预报。

如需切换地图:点击带黑十字的绿色按钮放大地图;点击带横线的绿色按钮缩小地图;或者点击绿色箭头查看邻近地区的地图。


METAR-TAF: